sensor_id;sensor_type;location;lat;lon;timestamp;pressure;altitude;pressure_sealevel;temperature
72054;BMP280;59918;51.280;7.950;2023-03-02T00:01:51;98595.66;;;-1.89
72054;BMP280;59918;51.280;7.950;2023-03-02T00:04:24;98599.88;;;-1.90
72054;BMP280;59918;51.280;7.950;2023-03-02T00:06:53;98594.38;;;-1.95
72054;BMP280;59918;51.280;7.950;2023-03-02T00:09:20;98587.94;;;-1.99
72054;BMP280;59918;51.280;7.950;2023-03-02T00:11:45;98594.13;;;-2.03
72054;BMP280;59918;51.280;7.950;2023-03-02T00:14:11;98601.78;;;-2.04
72054;BMP280;59918;51.280;7.950;2023-03-02T00:16:36;98583.66;;;-2.09
72054;BMP280;59918;51.280;7.950;2023-03-02T00:19:01;98586.28;;;-2.11
72054;BMP280;59918;51.280;7.950;2023-03-02T00:21:27;98577.34;;;-2.15
72054;BMP280;59918;51.280;7.950;2023-03-02T00:23:52;98581.59;;;-2.15
72054;BMP280;59918;51.280;7.950;2023-03-02T00:26:18;98570.66;;;-2.16
72054;BMP280;59918;51.280;7.950;2023-03-02T00:28:43;98566.56;;;-2.17
72054;BMP280;59918;51.280;7.950;2023-03-02T00:31:08;98558.31;;;-2.18
72054;BMP280;59918;51.280;7.950;2023-03-02T00:33:34;98562.66;;;-2.20
72054;BMP280;59918;51.280;7.950;2023-03-02T00:36:00;98567.00;;;-2.22
72054;BMP280;59918;51.280;7.950;2023-03-02T00:38:25;98564.81;;;-2.27
72054;BMP280;59918;51.280;7.950;2023-03-02T00:40:50;98550.91;;;-2.32
72054;BMP280;59918;51.280;7.950;2023-03-02T00:43:16;98558.25;;;-2.29
72054;BMP280;59918;51.280;7.950;2023-03-02T00:45:41;98554.13;;;-2.30
72054;BMP280;59918;51.280;7.950;2023-03-02T00:48:07;98557.00;;;-2.24
72054;BMP280;59918;51.280;7.950;2023-03-02T00:50:33;98558.31;;;-2.18
72054;BMP280;59918;51.280;7.950;2023-03-02T00:52:58;98564.75;;;-2.15
72054;BMP280;59918;51.280;7.950;2023-03-02T00:55:23;98559.19;;;-2.19
72054;BMP280;59918;51.280;7.950;2023-03-02T00:57:52;98557.72;;;-2.22
72054;BMP280;59918;51.280;7.950;2023-03-02T01:00:18;98558.94;;;-2.27
72054;BMP280;59918;51.280;7.950;2023-03-02T01:02:43;98558.94;;;-2.27
72054;BMP280;59918;51.280;7.950;2023-03-02T01:05:08;98553.91;;;-2.27
72054;BMP280;59918;51.280;7.950;2023-03-02T01:07:34;98551.38;;;-2.27
72054;BMP280;59918;51.280;7.950;2023-03-02T01:09:59;98551.72;;;-2.32
72054;BMP280;59918;51.280;7.950;2023-03-02T01:12:24;98548.59;;;-2.35
72054;BMP280;59918;51.280;7.950;2023-03-02T01:14:49;98553.84;;;-2.38
72054;BMP280;59918;51.280;7.950;2023-03-02T01:17:15;98556.38;;;-2.38
72054;BMP280;59918;51.280;7.950;2023-03-02T01:19:40;98559.78;;;-2.39
72054;BMP280;59918;51.280;7.950;2023-03-02T01:22:06;98547.19;;;-2.39
72054;BMP280;59918;51.280;7.950;2023-03-02T01:24:31;98553.34;;;-2.43
72054;BMP280;59918;51.280;7.950;2023-03-02T01:26:57;98552.66;;;-2.45
72054;BMP280;59918;51.280;7.950;2023-03-02T01:29:22;98552.78;;;-2.47
72054;BMP280;59918;51.280;7.950;2023-03-02T01:31:47;98553.78;;;-2.49
72054;BMP280;59918;51.280;7.950;2023-03-02T01:34:12;98559.06;;;-2.52
72054;BMP280;59918;51.280;7.950;2023-03-02T01:36:38;98558.34;;;-2.54
72054;BMP280;59918;51.280;7.950;2023-03-02T01:39:03;98538.41;;;-2.57
72054;BMP280;59918;51.280;7.950;2023-03-02T01:41:28;98546.28;;;-2.61
72054;BMP280;59918;51.280;7.950;2023-03-02T01:43:54;98552.91;;;-2.60
72054;BMP280;59918;51.280;7.950;2023-03-02T01:46:22;98556.25;;;-2.60
72054;BMP280;59918;51.280;7.950;2023-03-02T01:48:52;98548.91;;;-2.63
72054;BMP280;59918;51.280;7.950;2023-03-02T01:51:21;98544.09;;;-2.66
72054;BMP280;59918;51.280;7.950;2023-03-02T01:53:50;98551.84;;;-2.69
72054;BMP280;59918;51.280;7.950;2023-03-02T01:56:20;98546.09;;;-2.71
72054;BMP280;59918;51.280;7.950;2023-03-02T01:58:51;98542.00;;;-2.72
72054;BMP280;59918;51.280;7.950;2023-03-02T02:01:16;98548.16;;;-2.76
72054;BMP280;59918;51.280;7.950;2023-03-02T02:03:43;98541.72;;;-2.80
72054;BMP280;59918;51.280;7.950;2023-03-02T02:06:16;98541.00;;;-2.82
72054;BMP280;59918;51.280;7.950;2023-03-02T02:08:44;98544.41;;;-2.83
72054;BMP280;59918;51.280;7.950;2023-03-02T02:11:11;98541.44;;;-2.88
72054;BMP280;59918;51.280;7.950;2023-03-02T02:13:36;98540.13;;;-2.93
72054;BMP280;59918;51.280;7.950;2023-03-02T02:16:02;98541.25;;;-2.97
72054;BMP280;59918;51.280;7.950;2023-03-02T02:18:28;98541.44;;;-3.00
72054;BMP280;59918;51.280;7.950;2023-03-02T02:20:54;98534.00;;;-3.01
72054;BMP280;59918;51.280;7.950;2023-03-02T02:23:48;98537.63;;;-3.05
72054;BMP280;59918;51.280;7.950;2023-03-02T02:26:26;98532.19;;;-3.12
72054;BMP280;59918;51.280;7.950;2023-03-02T02:28:54;98529.19;;;-3.17
72054;BMP280;59918;51.280;7.950;2023-03-02T02:31:25;98535.03;;;-3.16
72054;BMP280;59918;51.280;7.950;2023-03-02T02:33:57;98530.88;;;-3.17
72054;BMP280;59918;51.280;7.950;2023-03-02T02:36:28;98528.28;;;-3.16
72054;BMP280;59918;51.280;7.950;2023-03-02T02:38:55;98528.38;;;-3.17
72054;BMP280;59918;51.280;7.950;2023-03-02T02:41:24;98524.97;;;-3.16
72054;BMP280;59918;51.280;7.950;2023-03-02T02:43:50;98522.53;;;-3.18
72054;BMP280;59918;51.280;7.950;2023-03-02T02:46:15;98525.97;;;-3.19
72054;BMP280;59918;51.280;7.950;2023-03-02T02:48:41;98521.22;;;-3.23
72054;BMP280;59918;51.280;7.950;2023-03-02T02:51:08;98519.63;;;-3.24
72054;BMP280;59918;51.280;7.950;2023-03-02T02:54:07;98511.50;;;-3.28
72054;BMP280;59918;51.280;7.950;2023-03-02T02:56:37;98515.13;;;-3.31
72054;BMP280;59918;51.280;7.950;2023-03-02T02:59:12;98517.63;;;-3.31
72054;BMP280;59918;51.280;7.950;2023-03-02T03:01:40;98521.16;;;-3.34
72054;BMP280;59918;51.280;7.950;2023-03-02T03:04:05;98521.47;;;-3.38
72054;BMP280;59918;51.280;7.950;2023-03-02T03:06:34;98514.63;;;-3.36
72054;BMP280;59918;51.280;7.950;2023-03-02T03:09:00;98522.47;;;-3.41
72054;BMP280;59918;51.280;7.950;2023-03-02T03:11:31;98521.56;;;-3.40
72054;BMP280;59918;51.280;7.950;2023-03-02T03:14:16;98514.03;;;-3.40
72054;BMP280;59918;51.280;7.950;2023-03-02T03:16:44;98511.50;;;-3.40
72054;BMP280;59918;51.280;7.950;2023-03-02T03:19:17;98509.00;;;-3.40
72054;BMP280;59918;51.280;7.950;2023-03-02T03:21:44;98514.03;;;-3.40
72054;BMP280;59918;51.280;7.950;2023-03-02T03:24:09;98508.28;;;-3.42
72054;BMP280;59918;51.280;7.950;2023-03-02T03:26:35;98504.28;;;-3.44
72054;BMP280;59918;51.280;7.950;2023-03-02T03:29:00;98500.13;;;-3.45
72054;BMP280;59918;51.280;7.950;2023-03-02T03:31:26;98502.97;;;-3.50
72054;BMP280;59918;51.280;7.950;2023-03-02T03:33:53;98497.00;;;-3.49
72054;BMP280;59918;51.280;7.950;2023-03-02T03:36:19;98492.13;;;-3.50
72054;BMP280;59918;51.280;7.950;2023-03-02T03:38:44;98492.81;;;-3.48
72054;BMP280;59918;51.280;7.950;2023-03-02T03:41:09;98487.19;;;-3.52
72054;BMP280;59918;51.280;7.950;2023-03-02T03:43:34;98488.19;;;-3.54
72054;BMP280;59918;51.280;7.950;2023-03-02T03:46:00;98488.47;;;-3.59
72054;BMP280;59918;51.280;7.950;2023-03-02T03:48:25;98493.50;;;-3.59
72054;BMP280;59918;51.280;7.950;2023-03-02T03:50:50;98489.50;;;-3.61
72054;BMP280;59918;51.280;7.950;2023-03-02T03:53:16;98493.72;;;-3.62
72054;BMP280;59918;51.280;7.950;2023-03-02T03:55:41;98490.41;;;-3.62
72054;BMP280;59918;51.280;7.950;2023-03-02T03:58:06;98493.63;;;-3.60
72054;BMP280;59918;51.280;7.950;2023-03-02T04:00:32;98499.44;;;-3.60
72054;BMP280;59918;51.280;7.950;2023-03-02T04:02:57;98499.44;;;-3.60
72054;BMP280;59918;51.280;7.950;2023-03-02T04:05:22;98498.66;;;-3.60
72054;BMP280;59918;51.280;7.950;2023-03-02T04:07:47;98504.66;;;-3.63
72054;BMP280;59918;51.280;7.950;2023-03-02T04:10:13;98498.94;;;-3.64
72054;BMP280;59918;51.280;7.950;2023-03-02T04:12:40;98499.16;;;-3.67
72054;BMP280;59918;51.280;7.950;2023-03-02T04:15:07;98507.00;;;-3.72
72054;BMP280;59918;51.280;7.950;2023-03-02T04:17:33;98497.84;;;-3.73
72054;BMP280;59918;51.280;7.950;2023-03-02T04:19:58;98503.88;;;-3.75
72054;BMP280;59918;51.280;7.950;2023-03-02T04:22:24;98503.16;;;-3.77
72054;BMP280;59918;51.280;7.950;2023-03-02T04:24:49;98510.72;;;-3.77
72054;BMP280;59918;51.280;7.950;2023-03-02T04:27:15;98515.72;;;-3.77
72054;BMP280;59918;51.280;7.950;2023-03-02T04:29:40;98518.25;;;-3.77
72054;BMP280;59918;51.280;7.950;2023-03-02T04:32:06;98520.84;;;-3.79
72054;BMP280;59918;51.280;7.950;2023-03-02T04:34:32;98520.94;;;-3.80
72054;BMP280;59918;51.280;7.950;2023-03-02T04:36:58;98519.34;;;-3.81
72054;BMP280;59918;51.280;7.950;2023-03-02T04:39:23;98528.69;;;-3.83
72054;BMP280;59918;51.280;7.950;2023-03-02T04:41:49;98525.56;;;-3.87
72054;BMP280;59918;51.280;7.950;2023-03-02T04:44:15;98524.66;;;-3.86
72054;BMP280;59918;51.280;7.950;2023-03-02T04:46:40;98531.41;;;-3.86
72054;BMP280;59918;51.280;7.950;2023-03-02T04:49:06;98513.09;;;-3.88
72054;BMP280;59918;51.280;7.950;2023-03-02T04:51:35;98512.38;;;-3.90
72054;BMP280;59918;51.280;7.950;2023-03-02T04:54:05;98518.44;;;-3.93
72054;BMP280;59918;51.280;7.950;2023-03-02T04:56:32;98517.09;;;-3.98
72054;BMP280;59918;51.280;7.950;2023-03-02T04:58:57;98514.59;;;-3.98
72054;BMP280;59918;51.280;7.950;2023-03-02T05:01:23;98512.28;;;-4.01
72054;BMP280;59918;51.280;7.950;2023-03-02T05:03:49;98513.88;;;-4.00
72054;BMP280;59918;51.280;7.950;2023-03-02T05:06:15;98511.38;;;-4.00
72054;BMP280;59918;51.280;7.950;2023-03-02T05:08:41;98508.16;;;-4.02
72054;BMP280;59918;51.280;7.950;2023-03-02T05:11:15;98499.03;;;-4.03
72054;BMP280;59918;51.280;7.950;2023-03-02T05:13:41;98497.41;;;-4.04
72054;BMP280;59918;51.280;7.950;2023-03-02T05:16:06;98497.22;;;-4.01
72054;BMP280;59918;51.280;7.950;2023-03-02T05:18:31;98493.78;;;-4.00
72054;BMP280;59918;51.280;7.950;2023-03-02T05:20:57;98494.69;;;-4.01
72054;BMP280;59918;51.280;7.950;2023-03-02T05:23:22;98490.78;;;-4.05
72054;BMP280;59918;51.280;7.950;2023-03-02T05:25:53;98489.25;;;-4.07
72054;BMP280;59918;51.280;7.950;2023-03-02T05:28:19;98481.91;;;-4.10
72054;BMP280;59918;51.280;7.950;2023-03-02T05:30:46;98489.53;;;-4.12
72054;BMP280;59918;51.280;7.950;2023-03-02T05:33:12;98482.09;;;-4.13
72054;BMP280;59918;51.280;7.950;2023-03-02T05:35:37;98484.63;;;-4.13
72054;BMP280;59918;51.280;7.950;2023-03-02T05:38:03;98486.84;;;-4.09
72054;BMP280;59918;51.280;7.950;2023-03-02T05:40:28;98484.34;;;-4.09
72054;BMP280;59918;51.280;7.950;2023-03-02T05:42:56;98485.03;;;-4.07
72054;BMP280;59918;51.280;7.950;2023-03-02T05:45:27;98484.34;;;-4.09
72054;BMP280;59918;51.280;7.950;2023-03-02T05:47:56;98484.34;;;-4.09
72054;BMP280;59918;51.280;7.950;2023-03-02T05:50:21;98485.13;;;-4.08
72054;BMP280;59918;51.280;7.950;2023-03-02T05:52:47;98485.13;;;-4.08
72054;BMP280;59918;51.280;7.950;2023-03-02T05:55:14;98480.22;;;-4.10
72054;BMP280;59918;51.280;7.950;2023-03-02T05:57:40;98481.91;;;-4.10
72054;BMP280;59918;51.280;7.950;2023-03-02T06:00:06;98488.75;;;-4.12
72054;BMP280;59918;51.280;7.950;2023-03-02T06:02:32;98481.22;;;-4.12
72054;BMP280;59918;51.280;7.950;2023-03-02T06:04:57;98490.47;;;-4.13
72054;BMP280;59918;51.280;7.950;2023-03-02T06:07:23;98482.94;;;-4.13
72054;BMP280;59918;51.280;7.950;2023-03-02T06:09:48;98487.94;;;-4.13
72054;BMP280;59918;51.280;7.950;2023-03-02T06:12:13;98491.34;;;-4.14
72054;BMP280;59918;51.280;7.950;2023-03-02T06:14:38;98487.84;;;-4.11
72054;BMP280;59918;51.280;7.950;2023-03-02T06:17:06;98489.53;;;-4.12
72054;BMP280;59918;51.280;7.950;2023-03-02T06:19:31;98485.13;;;-4.08
72054;BMP280;59918;51.280;7.950;2023-03-02T06:21:56;98488.53;;;-4.09
72054;BMP280;59918;51.280;7.950;2023-03-02T06:24:21;98493.47;;;-4.08
72054;BMP280;59918;51.280;7.950;2023-03-02T06:26:47;98490.97;;;-4.08
72054;BMP280;59918;51.280;7.950;2023-03-02T06:29:12;98492.59;;;-4.07
72054;BMP280;59918;51.280;7.950;2023-03-02T06:31:37;98490.78;;;-4.05
72054;BMP280;59918;51.280;7.950;2023-03-02T06:34:02;98488.97;;;-4.03
72054;BMP280;59918;51.280;7.950;2023-03-02T06:36:28;98493.00;;;-4.00
72054;BMP280;59918;51.280;7.950;2023-03-02T06:38:53;98497.81;;;-3.98
72054;BMP280;59918;51.280;7.950;2023-03-02T06:41:19;98499.34;;;-3.95
72054;BMP280;59918;51.280;7.950;2023-03-02T06:43:44;98496.59;;;-3.92
72054;BMP280;59918;51.280;7.950;2023-03-02T06:46:09;98497.31;;;-3.90
72054;BMP280;59918;51.280;7.950;2023-03-02T06:48:35;98504.75;;;-3.89
72054;BMP280;59918;51.280;7.950;2023-03-02T06:51:00;98503.56;;;-3.83
72054;BMP280;59918;51.280;7.950;2023-03-02T06:53:25;98499.34;;;-3.83
72054;BMP280;59918;51.280;7.950;2023-03-02T06:55:51;98498.22;;;-3.79
72054;BMP280;59918;51.280;7.950;2023-03-02T06:58:16;98496.34;;;-3.75
72054;BMP280;59918;51.280;7.950;2023-03-02T07:00:41;98503.66;;;-3.72
72054;BMP280;59918;51.280;7.950;2023-03-02T07:03:07;98495.00;;;-3.68
72054;BMP280;59918;51.280;7.950;2023-03-02T07:05:34;98506.28;;;-3.62
72054;BMP280;59918;51.280;7.950;2023-03-02T07:08:00;98487.78;;;-3.61
72054;BMP280;59918;51.280;7.950;2023-03-02T07:10:25;98506.59;;;-3.54
72054;BMP280;59918;51.280;7.950;2023-03-02T07:12:51;98510.28;;;-3.47
72054;BMP280;59918;51.280;7.950;2023-03-02T07:15:17;98517.66;;;-3.44
72054;BMP280;59918;51.280;7.950;2023-03-02T07:17:43;98524.78;;;-3.38
72054;BMP280;59918;51.280;7.950;2023-03-02T07:20:10;98527.06;;;-3.35
72054;BMP280;59918;51.280;7.950;2023-03-02T07:22:36;98518.56;;;-3.32
72054;BMP280;59918;51.280;7.950;2023-03-02T07:25:02;98512.41;;;-3.28
72054;BMP280;59918;51.280;7.950;2023-03-02T07:27:27;98513.69;;;-3.23
72054;BMP280;59918;51.280;7.950;2023-03-02T07:29:52;98519.75;;;-3.13
72054;BMP280;59918;51.280;7.950;2023-03-02T07:32:18;98521.63;;;-3.04
72054;BMP280;59918;51.280;7.950;2023-03-02T07:34:43;98511.84;;;-2.96
72054;BMP280;59918;51.280;7.950;2023-03-02T07:37:09;98522.69;;;-2.84
72054;BMP280;59918;51.280;7.950;2023-03-02T07:39:34;98517.88;;;-2.63
72054;BMP280;59918;51.280;7.950;2023-03-02T07:42:00;98518.63;;;-2.27
72054;BMP280;59918;51.280;7.950;2023-03-02T07:44:26;98514.44;;;-1.82
72054;BMP280;59918;51.280;7.950;2023-03-02T07:46:52;98512.78;;;-1.38
72054;BMP280;59918;51.280;7.950;2023-03-02T07:49:17;98511.28;;;-0.97
72054;BMP280;59918;51.280;7.950;2023-03-02T07:51:43;98506.31;;;-0.66
72054;BMP280;59918;51.280;7.950;2023-03-02T07:54:08;98510.44;;;-0.34
72054;BMP280;59918;51.280;7.950;2023-03-02T07:56:34;98510.66;;;-0.06
72054;BMP280;59918;51.280;7.950;2023-03-02T07:59:00;98513.97;;;0.26
72054;BMP280;59918;51.280;7.950;2023-03-02T08:01:25;98500.69;;;0.53
72054;BMP280;59918;51.280;7.950;2023-03-02T08:03:51;98506.81;;;0.80
72054;BMP280;59918;51.280;7.950;2023-03-02T08:06:16;98502.25;;;1.04
72054;BMP280;59918;51.280;7.950;2023-03-02T08:08:42;98492.97;;;1.33
72054;BMP280;59918;51.280;7.950;2023-03-02T08:11:11;98497.94;;;1.62
72054;BMP280;59918;51.280;7.950;2023-03-02T08:13:37;98493.03;;;1.89
72054;BMP280;59918;51.280;7.950;2023-03-02T08:16:04;98488.47;;;2.11
72054;BMP280;59918;51.280;7.950;2023-03-02T08:18:32;98495.94;;;2.31
72054;BMP280;59918;51.280;7.950;2023-03-02T08:20:58;98490.78;;;2.50
72054;BMP280;59918;51.280;7.950;2023-03-02T08:23:25;98489.78;;;2.70
72054;BMP280;59918;51.280;7.950;2023-03-02T08:25:51;98483.56;;;2.91
72054;BMP280;59918;51.280;7.950;2023-03-02T08:28:17;98486.03;;;3.10
72054;BMP280;59918;51.280;7.950;2023-03-02T08:30:43;98486.56;;;3.30
72054;BMP280;59918;51.280;7.950;2023-03-02T08:33:08;98479.63;;;3.50
72054;BMP280;59918;51.280;7.950;2023-03-02T08:35:33;98481.88;;;3.70
72054;BMP280;59918;51.280;7.950;2023-03-02T08:37:58;98483.84;;;3.93
72054;BMP280;59918;51.280;7.950;2023-03-02T08:40:24;98483.09;;;4.18
72054;BMP280;59918;51.280;7.950;2023-03-02T08:42:50;98478.31;;;4.40
72054;BMP280;59918;51.280;7.950;2023-03-02T08:45:15;98474.19;;;4.64
72054;BMP280;59918;51.280;7.950;2023-03-02T08:47:40;98476.19;;;4.86
72054;BMP280;59918;51.280;7.950;2023-03-02T08:50:06;98479.13;;;5.07
72054;BMP280;59918;51.280;7.950;2023-03-02T08:52:33;98476.66;;;5.30
72054;BMP280;59918;51.280;7.950;2023-03-02T08:54:58;98460.97;;;5.58
72054;BMP280;59918;51.280;7.950;2023-03-02T08:57:23;98466.91;;;5.82
72054;BMP280;59918;51.280;7.950;2023-03-02T08:59:48;98456.41;;;6.09
72054;BMP280;59918;51.280;7.950;2023-03-02T09:02:14;98461.16;;;6.36
72054;BMP280;59918;51.280;7.950;2023-03-02T09:04:39;98450.56;;;6.62
72054;BMP280;59918;51.280;7.950;2023-03-02T09:07:04;98449.81;;;7.00
72054;BMP280;59918;51.280;7.950;2023-03-02T09:09:29;98444.38;;;7.33
72054;BMP280;59918;51.280;7.950;2023-03-02T09:11:54;98444.91;;;7.73
72054;BMP280;59918;51.280;7.950;2023-03-02T09:14:20;98443.84;;;8.12
72054;BMP280;59918;51.280;7.950;2023-03-02T09:16:45;98436.38;;;8.53
72054;BMP280;59918;51.280;7.950;2023-03-02T09:19:13;98440.09;;;8.94
72054;BMP280;59918;51.280;7.950;2023-03-02T09:21:39;98433.66;;;9.33
72054;BMP280;59918;51.280;7.950;2023-03-02T09:24:04;98427.53;;;9.69
72054;BMP280;59918;51.280;7.950;2023-03-02T09:26:29;98435.44;;;10.09
72054;BMP280;59918;51.280;7.950;2023-03-02T09:28:55;98421.28;;;10.46
72054;BMP280;59918;51.280;7.950;2023-03-02T09:31:21;98421.91;;;10.88
72054;BMP280;59918;51.280;7.950;2023-03-02T09:33:46;98415.38;;;11.38
72054;BMP280;59918;51.280;7.950;2023-03-02T09:36:18;98422.44;;;11.83
72054;BMP280;59918;51.280;7.950;2023-03-02T09:38:44;98415.13;;;12.38
72054;BMP280;59918;51.280;7.950;2023-03-02T09:46:50;98414.84;;;13.71
72054;BMP280;59918;51.280;7.950;2023-03-02T09:54:39;98405.34;;;15.32
72054;BMP280;59918;51.280;7.950;2023-03-02T09:57:18;98410.34;;;15.74
72054;BMP280;59918;51.280;7.950;2023-03-02T09:59:48;98404.38;;;16.26
72054;BMP280;59918;51.280;7.950;2023-03-02T10:02:22;98399.75;;;16.62
72054;BMP280;59918;51.280;7.950;2023-03-02T10:04:50;98396.19;;;17.02
72054;BMP280;59918;51.280;7.950;2023-03-02T10:07:24;98392.16;;;17.33
72054;BMP280;59918;51.280;7.950;2023-03-02T10:09:50;98392.38;;;17.59
72054;BMP280;59918;51.280;7.950;2023-03-02T10:15:09;98399.81;;;18.65
72054;BMP280;59918;51.280;7.950;2023-03-02T10:17:54;98391.66;;;19.15
72054;BMP280;59918;51.280;7.950;2023-03-02T10:20:27;98393.53;;;19.46
72054;BMP280;59918;51.280;7.950;2023-03-02T10:25:54;98399.44;;;20.15
72054;BMP280;59918;51.280;7.950;2023-03-02T10:28:27;98397.88;;;20.50
72054;BMP280;59918;51.280;7.950;2023-03-02T10:30:59;98392.00;;;21.30
72054;BMP280;59918;51.280;7.950;2023-03-02T10:33:29;98389.69;;;21.38
72054;BMP280;59918;51.280;7.950;2023-03-02T10:35:55;98389.22;;;21.71
72054;BMP280;59918;51.280;7.950;2023-03-02T10:38:23;98388.75;;;22.03
72054;BMP280;59918;51.280;7.950;2023-03-02T10:40:51;98379.84;;;22.34
72054;BMP280;59918;51.280;7.950;2023-03-02T10:46:04;98368.69;;;23.01
72054;BMP280;59918;51.280;7.950;2023-03-02T10:48:30;98374.81;;;23.40
72054;BMP280;59918;51.280;7.950;2023-03-02T10:50:57;98373.31;;;23.67
72054;BMP280;59918;51.280;7.950;2023-03-02T10:53:23;98371.31;;;23.92
72054;BMP280;59918;51.280;7.950;2023-03-02T10:55:50;98370.34;;;24.16
72054;BMP280;59918;51.280;7.950;2023-03-02T10:58:34;98365.63;;;24.69
72054;BMP280;59918;51.280;7.950;2023-03-02T11:01:02;98362.38;;;24.77
72054;BMP280;59918;51.280;7.950;2023-03-02T11:03:29;98353.69;;;25.00
72054;BMP280;59918;51.280;7.950;2023-03-02T11:05:55;98352.94;;;25.18
72054;BMP280;59918;51.280;7.950;2023-03-02T11:08:23;98359.66;;;25.47
72054;BMP280;59918;51.280;7.950;2023-03-02T11:10:58;98357.94;;;25.56
72054;BMP280;59918;51.280;7.950;2023-03-02T11:13:30;98361.53;;;25.83
72054;BMP280;59918;51.280;7.950;2023-03-02T11:18:39;98353.28;;;26.34
72054;BMP280;59918;51.280;7.950;2023-03-02T11:21:09;98345.03;;;26.54
72054;BMP280;59918;51.280;7.950;2023-03-02T11:31:54;98333.88;;;27.58
72054;BMP280;59918;51.280;7.950;2023-03-02T11:34:25;98333.38;;;27.56
72054;BMP280;59918;51.280;7.950;2023-03-02T11:37:09;98332.09;;;28.11
72054;BMP280;59918;51.280;7.950;2023-03-02T11:42:17;98325.03;;;28.58
72054;BMP280;59918;51.280;7.950;2023-03-02T11:44:44;98324.28;;;28.66
72054;BMP280;59918;51.280;7.950;2023-03-02T11:47:10;98322.06;;;28.98
72054;BMP280;59918;51.280;7.950;2023-03-02T11:49:39;98313.03;;;29.07
72054;BMP280;59918;51.280;7.950;2023-03-02T11:52:15;98317.25;;;29.08
72054;BMP280;59918;51.280;7.950;2023-03-02T11:54:43;98315.09;;;29.19
72054;BMP280;59918;51.280;7.950;2023-03-02T11:57:18;98314.03;;;29.20
72054;BMP280;59918;51.280;7.950;2023-03-02T11:59:45;98301.41;;;29.67
72054;BMP280;59918;51.280;7.950;2023-03-02T12:02:12;98304.75;;;30.18
72054;BMP280;59918;51.280;7.950;2023-03-02T12:04:38;98303.56;;;30.52
72054;BMP280;59918;51.280;7.950;2023-03-02T12:07:23;98298.34;;;30.64
72054;BMP280;59918;51.280;7.950;2023-03-02T12:10:35;98297.41;;;30.97
72054;BMP280;59918;51.280;7.950;2023-03-02T12:13:32;98291.72;;;31.27
72054;BMP280;59918;51.280;7.950;2023-03-02T12:15:58;98284.88;;;31.47
72054;BMP280;59918;51.280;7.950;2023-03-02T12:21:03;98287.53;;;31.79
72054;BMP280;59918;51.280;7.950;2023-03-02T12:23:30;98287.75;;;32.06
72054;BMP280;59918;51.280;7.950;2023-03-02T12:28:40;98269.19;;;32.53
72054;BMP280;59918;51.280;7.950;2023-03-02T12:31:09;98271.78;;;32.85
72054;BMP280;59918;51.280;7.950;2023-03-02T12:33:49;98266.84;;;33.11
72054;BMP280;59918;51.280;7.950;2023-03-02T12:36:25;98269.53;;;32.99
72054;BMP280;59918;51.280;7.950;2023-03-02T12:41:43;98263.69;;;33.60
72054;BMP280;59918;51.280;7.950;2023-03-02T12:47:00;98259.03;;;33.84
72054;BMP280;59918;51.280;7.950;2023-03-02T12:57:30;98242.63;;;34.59
72054;BMP280;59918;51.280;7.950;2023-03-02T12:59:58;98242.41;;;34.82
72054;BMP280;59918;51.280;7.950;2023-03-02T13:02:27;98244.81;;;34.87
72054;BMP280;59918;51.280;7.950;2023-03-02T13:07:29;98231.75;;;35.57
72054;BMP280;59918;51.280;7.950;2023-03-02T13:09:58;98224.66;;;35.83
72054;BMP280;59918;51.280;7.950;2023-03-02T13:12:27;98233.44;;;35.84
72054;BMP280;59918;51.280;7.950;2023-03-02T13:14:57;98221.47;;;36.00
72054;BMP280;59918;51.280;7.950;2023-03-02T13:17:28;98228.41;;;36.23
72054;BMP280;59918;51.280;7.950;2023-03-02T13:19:54;98216.25;;;36.29
72054;BMP280;59918;51.280;7.950;2023-03-02T13:22:20;98213.09;;;36.46
72054;BMP280;59918;51.280;7.950;2023-03-02T13:25:06;98210.25;;;36.61
72054;BMP280;59918;51.280;7.950;2023-03-02T13:27:32;98207.41;;;36.51
72054;BMP280;59918;51.280;7.950;2023-03-02T13:30:18;98201.22;;;36.47
72054;BMP280;59918;51.280;7.950;2023-03-02T13:32:45;98204.06;;;36.83
72054;BMP280;59918;51.280;7.950;2023-03-02T13:35:20;98198.09;;;36.96
72054;BMP280;59918;51.280;7.950;2023-03-02T13:37:46;98202.00;;;37.31
72054;BMP280;59918;51.280;7.950;2023-03-02T13:42:46;98207.81;;;37.37
72054;BMP280;59918;51.280;7.950;2023-03-02T13:45:30;98193.47;;;37.55
72054;BMP280;59918;51.280;7.950;2023-03-02T13:47:57;98194.09;;;37.78
72054;BMP280;59918;51.280;7.950;2023-03-02T13:50:26;98202.38;;;37.99
72054;BMP280;59918;51.280;7.950;2023-03-02T13:52:54;98186.47;;;38.30
72054;BMP280;59918;51.280;7.950;2023-03-02T13:55:21;98184.84;;;38.15
72054;BMP280;59918;51.280;7.950;2023-03-02T13:57:48;98187.06;;;38.06
72054;BMP280;59918;51.280;7.950;2023-03-02T14:00:34;98195.63;;;38.22
72054;BMP280;59918;51.280;7.950;2023-03-02T14:03:00;98186.16;;;38.35
72054;BMP280;59918;51.280;7.950;2023-03-02T14:05:26;98182.25;;;38.29
72054;BMP280;59918;51.280;7.950;2023-03-02T14:07:52;98171.25;;;37.94
72054;BMP280;59918;51.280;7.950;2023-03-02T14:10:19;98175.53;;;37.99
72054;BMP280;59918;51.280;7.950;2023-03-02T14:15:17;98161.41;;;38.12
72054;BMP280;59918;51.280;7.950;2023-03-02T14:17:43;98167.16;;;38.07
72054;BMP280;59918;51.280;7.950;2023-03-02T14:20:11;98165.56;;;37.63
72054;BMP280;59918;51.280;7.950;2023-03-02T14:22:36;98152.88;;;37.57
72054;BMP280;59918;51.280;7.950;2023-03-02T14:25:02;98160.47;;;37.51
72054;BMP280;59918;51.280;7.950;2023-03-02T14:27:28;98167.28;;;37.42
72054;BMP280;59918;51.280;7.950;2023-03-02T14:29:54;98158.34;;;37.31
72054;BMP280;59918;51.280;7.950;2023-03-02T14:32:19;98151.94;;;37.42
72054;BMP280;59918;51.280;7.950;2023-03-02T14:34:47;98157.88;;;37.58
72054;BMP280;59918;51.280;7.950;2023-03-02T14:37:16;98161.69;;;37.21
72054;BMP280;59918;51.280;7.950;2023-03-02T14:39:48;98161.09;;;37.38
72054;BMP280;59918;51.280;7.950;2023-03-02T14:42:14;98153.06;;;37.77
72054;BMP280;59918;51.280;7.950;2023-03-02T14:44:41;98155.16;;;37.22
72054;BMP280;59918;51.280;7.950;2023-03-02T14:47:06;98151.56;;;37.08
72054;BMP280;59918;51.280;7.950;2023-03-02T14:49:32;98159.28;;;36.84
72054;BMP280;59918;51.280;7.950;2023-03-02T14:54:49;98153.59;;;36.88
72054;BMP280;59918;51.280;7.950;2023-03-02T14:57:19;98157.78;;;36.86
72054;BMP280;59918;51.280;7.950;2023-03-02T14:59:45;98154.75;;;36.87
72054;BMP280;59918;51.280;7.950;2023-03-02T15:02:10;98156.56;;;36.80
72054;BMP280;59918;51.280;7.950;2023-03-02T15:04:36;98150.97;;;36.92
72054;BMP280;59918;51.280;7.950;2023-03-02T15:07:01;98147.75;;;36.80
72054;BMP280;59918;51.280;7.950;2023-03-02T15:09:27;98145.00;;;36.47
72054;BMP280;59918;51.280;7.950;2023-03-02T15:11:52;98146.97;;;36.50
72054;BMP280;59918;51.280;7.950;2023-03-02T15:14:17;98140.59;;;36.32